createdAt,value
2019-05-11T00:00:37.510Z,994.60
2019-05-11T00:01:37.433Z,994.61
2019-05-11T00:02:37.422Z,994.61
2019-05-11T00:03:37.410Z,994.49
2019-05-11T00:04:37.442Z,994.58
2019-05-11T00:05:37.395Z,994.59
2019-05-11T00:06:37.452Z,994.55
2019-05-11T00:07:37.368Z,994.49
2019-05-11T00:08:37.359Z,994.47
2019-05-11T00:09:37.376Z,994.40
2019-05-11T00:10:37.341Z,994.45
2019-05-11T00:11:37.331Z,994.41
2019-05-11T00:12:37.316Z,994.37
2019-05-11T00:13:37.307Z,994.33
2019-05-11T00:14:37.321Z,994.36
2019-05-11T00:15:37.285Z,994.49
2019-05-11T00:16:37.277Z,994.47
2019-05-11T00:17:37.271Z,994.44
2019-05-11T00:18:37.250Z,994.41
2019-05-11T00:19:37.280Z,994.46
2019-05-11T00:20:37.238Z,994.47
2019-05-11T00:21:37.218Z,994.48
2019-05-11T00:22:37.211Z,994.54
2019-05-11T00:23:37.201Z,994.54
2019-05-11T00:24:37.215Z,994.60
2019-05-11T00:25:37.180Z,994.73
2019-05-11T00:26:37.165Z,994.62
2019-05-11T00:27:37.156Z,994.64
2019-05-11T00:28:37.149Z,994.63
2019-05-11T00:29:37.164Z,994.50
2019-05-11T00:30:37.123Z,994.52
2019-05-11T00:31:37.111Z,994.61
2019-05-11T00:32:37.107Z,994.56
2019-05-11T00:33:37.092Z,994.58
2019-05-11T00:34:37.117Z,994.48
2019-05-11T00:35:37.081Z,994.53
2019-05-11T00:36:37.059Z,994.52
2019-05-11T00:37:37.049Z,994.48
2019-05-11T00:38:37.041Z,994.49
2019-05-11T00:39:37.063Z,994.47
2019-05-11T00:40:37.140Z,994.46
2019-05-11T00:41:37.030Z,994.51
2019-05-11T00:42:37.104Z,994.50
2019-05-11T00:43:36.986Z,994.49
2019-05-11T00:44:37.036Z,994.49
2019-05-11T00:45:36.975Z,994.49
2019-05-11T00:46:37.114Z,994.46
2019-05-11T00:47:36.952Z,994.51
2019-05-11T00:48:36.933Z,994.51
2019-05-11T00:49:36.954Z,994.47
2019-05-11T00:50:39.839Z,994.43
2019-05-11T00:51:36.901Z,994.48
2019-05-11T00:52:36.892Z,994.45
2019-05-11T00:53:36.879Z,994.43
2019-05-11T00:54:36.903Z,994.42
2019-05-11T00:55:36.864Z,994.48
2019-05-11T00:56:36.851Z,994.46
2019-05-11T00:57:36.839Z,994.45
2019-05-11T00:58:36.826Z,994.47
2019-05-11T00:59:36.859Z,994.44
2019-05-11T01:00:36.803Z,994.41
2019-05-11T01:01:36.796Z,994.41
2019-05-11T01:02:36.787Z,994.38
2019-05-11T01:03:36.772Z,994.36
2019-05-11T01:04:36.777Z,994.40
2019-05-11T01:05:36.783Z,994.23
2019-05-11T01:06:36.742Z,994.22
2019-05-11T01:07:36.735Z,994.22
2019-05-11T01:08:36.718Z,994.25
2019-05-11T01:09:36.715Z,994.19
2019-05-11T01:10:42.116Z,994.14
2019-05-11T01:11:37.689Z,994.22
2019-05-11T01:12:36.701Z,994.17
2019-05-11T01:13:36.669Z,994.15
2019-05-11T01:14:36.664Z,994.19
2019-05-11T01:15:36.675Z,994.12
2019-05-11T01:16:36.640Z,994.12
2019-05-11T01:17:36.623Z,994.18
2019-05-11T01:18:36.616Z,994.13
2019-05-11T01:19:36.603Z,994.07
2019-05-11T01:20:36.617Z,994.10
2019-05-11T01:21:36.583Z,994.10
2019-05-11T01:22:36.567Z,994.12
2019-05-11T01:23:36.563Z,994.06
2019-05-11T01:24:36.547Z,994.09
2019-05-11T01:25:36.570Z,994.09
2019-05-11T01:26:36.537Z,994.10
2019-05-11T01:27:36.522Z,994.06
2019-05-11T01:28:36.504Z,994.10
2019-05-11T01:29:36.501Z,994.09
2019-05-11T01:30:38.764Z,994.07
2019-05-11T01:31:36.475Z,994.04
2019-05-11T01:32:36.469Z,994.05
2019-05-11T01:33:36.469Z,994.02
2019-05-11T01:34:36.464Z,993.98
2019-05-11T01:35:36.517Z,993.92
2019-05-11T01:36:36.423Z,993.97
2019-05-11T01:37:36.408Z,993.95
2019-05-11T01:38:36.400Z,993.97
2019-05-11T01:39:36.409Z,994.03
2019-05-11T01:40:36.405Z,993.93
2019-05-11T01:41:36.370Z,993.92
2019-05-11T01:42:36.354Z,993.95
2019-05-11T01:43:36.357Z,993.88
2019-05-11T01:44:36.339Z,993.99
2019-05-11T01:45:36.360Z,993.99
2019-05-11T01:46:36.323Z,993.92
2019-05-11T01:47:36.328Z,993.94
2019-05-11T01:48:36.294Z,993.92
2019-05-11T01:49:36.286Z,993.90
2019-05-11T01:50:36.270Z,993.97
2019-05-11T01:51:36.352Z,993.93
2019-05-11T01:52:36.250Z,993.95
2019-05-11T01:53:36.247Z,994.01
2019-05-11T01:54:36.226Z,994.01
2019-05-11T01:55:36.239Z,994.09
2019-05-11T01:56:36.230Z,994.04
2019-05-11T01:57:36.199Z,994.06
2019-05-11T01:58:36.187Z,994.07
2019-05-11T01:59:36.189Z,994.13
2019-05-11T02:00:36.162Z,994.08
2019-05-11T02:01:36.181Z,994.09
2019-05-11T02:02:36.153Z,994.08
2019-05-11T02:03:36.200Z,994.03
2019-05-11T02:04:36.120Z,994.09
2019-05-11T02:05:36.125Z,993.99
2019-05-11T02:06:36.130Z,994.06
2019-05-11T02:07:36.099Z,993.97
2019-05-11T02:08:36.083Z,994.07
2019-05-11T02:09:36.067Z,993.91
2019-05-11T02:10:36.059Z,993.97
2019-05-11T02:11:36.075Z,993.93
2019-05-11T02:12:36.037Z,994.00
2019-05-11T02:13:36.025Z,993.96
2019-05-11T02:14:36.016Z,994.04
2019-05-11T02:15:36.004Z,994.08
2019-05-11T02:16:36.017Z,994.01
2019-05-11T02:17:35.983Z,993.96
2019-05-11T02:18:35.979Z,994.01
2019-05-11T02:19:36.035Z,994.01
2019-05-11T02:20:35.956Z,994.00
2019-05-11T02:21:35.978Z,994.06
2019-05-11T02:22:35.938Z,993.92
2019-05-11T02:23:35.915Z,993.94
2019-05-11T02:24:35.907Z,993.94
2019-05-11T02:25:35.899Z,993.97
2019-05-11T02:26:35.931Z,993.85
2019-05-11T02:27:35.875Z,993.95
2019-05-11T02:28:35.868Z,993.89
2019-05-11T02:29:35.856Z,993.87
2019-05-11T02:30:35.853Z,993.90
2019-05-11T02:31:35.842Z,993.92
2019-05-11T02:32:35.847Z,993.89
2019-05-11T02:33:35.812Z,993.88
2019-05-11T02:34:35.805Z,993.91
2019-05-11T02:35:35.791Z,993.95
2019-05-11T02:36:35.782Z,993.89
2019-05-11T02:37:35.803Z,993.93
2019-05-11T02:38:35.763Z,993.86
2019-05-11T02:39:35.752Z,993.81
2019-05-11T02:40:35.739Z,993.90
2019-05-11T02:41:37.448Z,993.94
2019-05-11T02:42:35.743Z,993.87
2019-05-11T02:43:35.708Z,993.80
2019-05-11T02:44:35.708Z,993.73
2019-05-11T02:45:35.684Z,993.78
2019-05-11T02:46:35.683Z,993.71
2019-05-11T02:47:35.687Z,993.69
2019-05-11T02:48:35.652Z,993.64
2019-05-11T02:49:35.640Z,993.67
2019-05-11T02:50:35.638Z,993.64
2019-05-11T02:51:35.619Z,993.64
2019-05-11T02:52:35.646Z,993.61
2019-05-11T02:53:35.599Z,993.62
2019-05-11T02:54:35.591Z,993.66
2019-05-11T02:55:35.577Z,993.67
2019-05-11T02:56:35.570Z,993.67
2019-05-11T02:57:35.559Z,993.66
2019-05-11T02:58:35.575Z,993.72
2019-05-11T02:59:35.539Z,993.67
2019-05-11T03:00:35.537Z,993.77
2019-05-11T03:01:35.519Z,993.65
2019-05-11T03:02:35.504Z,993.66
2019-05-11T03:03:35.515Z,993.66
2019-05-11T03:04:35.486Z,993.64
2019-05-11T03:05:35.474Z,993.66
2019-05-11T03:06:35.549Z,993.61
2019-05-11T03:07:35.459Z,993.59
2019-05-11T03:08:35.466Z,993.61
2019-05-11T03:09:35.432Z,993.66
2019-05-11T03:10:35.417Z,993.59
2019-05-11T03:11:53.662Z,993.59
2019-05-11T03:12:36.397Z,993.52
2019-05-11T03:13:35.416Z,993.52
2019-05-11T03:14:35.379Z,993.57
2019-05-11T03:15:35.395Z,993.52
2019-05-11T03:16:35.359Z,993.56
2019-05-11T03:17:35.350Z,993.50
2019-05-11T03:18:35.357Z,993.49
2019-05-11T03:19:35.322Z,993.45
2019-05-11T03:20:35.313Z,993.42
2019-05-11T03:21:35.298Z,993.48
2019-05-11T03:22:35.287Z,993.46
2019-05-11T03:23:35.326Z,993.47
2019-05-11T03:24:35.267Z,993.50
2019-05-11T03:25:35.257Z,993.51
2019-05-11T03:26:35.249Z,993.46
2019-05-11T03:27:35.240Z,993.56
2019-05-11T03:28:35.226Z,993.62
2019-05-11T03:29:35.242Z,993.63
2019-05-11T03:30:35.218Z,993.67
2019-05-11T03:31:35.196Z,993.68
2019-05-11T03:32:35.183Z,993.71
2019-05-11T03:33:35.171Z,993.71
2019-05-11T03:34:35.188Z,993.67
2019-05-11T03:35:35.153Z,993.64
2019-05-11T03:36:35.143Z,993.68
2019-05-11T03:37:35.143Z,993.69
2019-05-11T03:38:35.117Z,993.62
2019-05-11T03:39:35.140Z,993.70
2019-05-11T03:40:35.098Z,993.66
2019-05-11T03:41:35.105Z,993.67
2019-05-11T03:42:35.081Z,993.67
2019-05-11T03:43:35.072Z,993.70
2019-05-11T03:44:35.358Z,993.73
2019-05-11T03:45:35.045Z,993.77
2019-05-11T03:46:35.032Z,993.76
2019-05-11T03:47:35.020Z,993.83
2019-05-11T03:48:35.016Z,993.83
2019-05-11T03:49:35.007Z,993.82
2019-05-11T03:50:35.019Z,993.84
2019-05-11T03:51:35.004Z,993.95
2019-05-11T03:52:34.970Z,993.91
2019-05-11T03:53:34.967Z,993.97
2019-05-11T03:54:34.961Z,993.89
2019-05-11T03:55:34.987Z,993.91
2019-05-11T03:56:34.929Z,993.90
2019-05-11T03:57:34.915Z,993.88
2019-05-11T03:58:34.914Z,993.98
2019-05-11T03:59:34.902Z,993.97
2019-05-11T04:00:34.915Z,993.83
2019-05-11T04:01:34.875Z,993.96
2019-05-11T04:02:34.860Z,993.94
2019-05-11T04:03:34.856Z,993.91
2019-05-11T04:04:34.847Z,993.93
2019-05-11T04:05:34.864Z,993.98
2019-05-11T04:06:34.823Z,994.02
2019-05-11T04:07:34.832Z,994.03
2019-05-11T04:08:34.799Z,993.99
2019-05-11T04:09:34.789Z,994.02
2019-05-11T04:10:34.822Z,994.04
2019-05-11T04:11:34.778Z,994.04
2019-05-11T04:12:35.680Z,994.07
2019-05-11T04:13:34.748Z,994.06
2019-05-11T04:14:34.733Z,994.04
2019-05-11T04:15:34.751Z,994.00
2019-05-11T04:16:34.713Z,994.09
2019-05-11T04:17:34.704Z,994.10
2019-05-11T04:18:34.703Z,994.08
2019-05-11T04:19:34.683Z,994.08
2019-05-11T04:20:34.703Z,994.03
2019-05-11T04:21:34.679Z,994.15
2019-05-11T04:22:34.656Z,994.07
2019-05-11T04:23:34.639Z,994.11
2019-05-11T04:24:34.628Z,994.10
2019-05-11T04:25:34.651Z,994.10
2019-05-11T04:26:34.619Z,994.12
2019-05-11T04:27:34.600Z,994.16
2019-05-11T04:28:34.589Z,994.15
2019-05-11T04:29:34.574Z,994.15
2019-05-11T04:30:34.597Z,994.07
2019-05-11T04:31:34.551Z,994.12
2019-05-11T04:32:34.541Z,994.11
2019-05-11T04:33:34.534Z,994.10
2019-05-11T04:34:34.522Z,994.09
2019-05-11T04:35:34.521Z,994.08
2019-05-11T04:36:34.524Z,994.13
2019-05-11T04:37:34.489Z,994.09
2019-05-11T04:38:34.481Z,994.07
2019-05-11T04:39:34.462Z,994.08
2019-05-11T04:40:34.459Z,994.10
2019-05-11T04:41:34.475Z,994.14
2019-05-11T04:42:51.817Z,994.13
2019-05-11T04:43:35.424Z,994.11
2019-05-11T04:44:34.411Z,994.12
2019-05-11T04:45:34.407Z,994.06
2019-05-11T04:46:34.423Z,994.10
2019-05-11T04:47:34.380Z,994.09
2019-05-11T04:48:34.370Z,994.22
2019-05-11T04:49:34.360Z,994.10
2019-05-11T04:50:34.353Z,994.11
2019-05-11T04:51:34.367Z,994.13
2019-05-11T04:52:34.445Z,994.17
2019-05-11T04:53:34.314Z,994.14
2019-05-11T04:54:34.310Z,994.18
2019-05-11T04:55:34.297Z,994.11
2019-05-11T04:56:34.312Z,994.09
2019-05-11T04:57:34.274Z,994.22
2019-05-11T04:58:34.271Z,994.09
2019-05-11T04:59:34.257Z,994.15
2019-05-11T05:00:34.242Z,994.20
2019-05-11T05:01:34.260Z,994.15
2019-05-11T05:02:34.221Z,994.16
2019-05-11T05:03:40.630Z,994.17
2019-05-11T05:04:35.197Z,994.18
2019-05-11T05:05:34.187Z,994.17
2019-05-11T05:06:34.199Z,994.24
2019-05-11T05:07:34.164Z,994.12
2019-05-11T05:08:34.158Z,994.17
2019-05-11T05:09:36.233Z,994.14
2019-05-11T05:10:35.133Z,994.14
2019-05-11T05:11:36.619Z,994.14
2019-05-11T05:12:34.115Z,994.13
2019-05-11T05:13:34.107Z,994.14
2019-05-11T05:14:34.104Z,994.15
2019-05-11T05:15:34.088Z,994.08
2019-05-11T05:16:34.098Z,994.10
2019-05-11T05:17:34.061Z,994.13
2019-05-11T05:18:34.054Z,994.11
2019-05-11T05:19:34.044Z,994.13
2019-05-11T05:20:34.036Z,994.17
2019-05-11T05:21:34.049Z,994.11
2019-05-11T05:22:34.011Z,994.11
2019-05-11T05:23:34.002Z,994.05
2019-05-11T05:24:33.993Z,994.05
2019-05-11T05:25:33.992Z,994.02
2019-05-11T05:26:34.006Z,994.07
2019-05-11T05:27:33.960Z,994.19
2019-05-11T05:28:33.950Z,994.13
2019-05-11T05:29:33.938Z,994.15
2019-05-11T05:30:33.925Z,994.09
2019-05-11T05:31:33.917Z,994.16
2019-05-11T05:32:33.934Z,994.14
2019-05-11T05:33:33.899Z,994.15
2019-05-11T05:34:33.887Z,994.16
2019-05-11T05:35:33.872Z,994.17
2019-05-11T05:36:33.865Z,994.21
2019-05-11T05:37:33.883Z,994.27
2019-05-11T05:38:33.846Z,994.22
2019-05-11T05:39:33.839Z,994.19
2019-05-11T05:40:33.822Z,994.19
2019-05-11T05:41:33.811Z,994.22
2019-05-11T05:42:33.830Z,994.18
2019-05-11T05:43:33.799Z,994.20
2019-05-11T05:44:33.782Z,994.23
2019-05-11T05:45:33.780Z,994.24
2019-05-11T05:46:33.761Z,994.35
2019-05-11T05:47:33.785Z,994.28
2019-05-11T05:48:33.752Z,994.24
2019-05-11T05:49:33.753Z,994.26
2019-05-11T05:50:33.719Z,994.21
2019-05-11T05:51:33.707Z,994.29
2019-05-11T05:52:33.726Z,994.26
2019-05-11T05:53:33.690Z,994.31
2019-05-11T05:54:33.749Z,994.29
2019-05-11T05:55:33.668Z,994.27
2019-05-11T05:56:33.663Z,994.36
2019-05-11T05:57:33.681Z,994.32
2019-05-11T05:58:33.827Z,994.35
2019-05-11T05:59:33.626Z,994.34
2019-05-11T06:00:33.619Z,994.38
2019-05-11T06:01:33.619Z,994.27
2019-05-11T06:02:33.623Z,994.29
2019-05-11T06:03:33.589Z,994.28
2019-05-11T06:04:33.571Z,994.30
2019-05-11T06:05:33.568Z,994.28
2019-05-11T06:06:33.564Z,994.26
2019-05-11T06:07:33.572Z,994.26
2019-05-11T06:08:33.532Z,994.30
2019-05-11T06:09:33.540Z,994.27
2019-05-11T06:10:33.516Z,994.33
2019-05-11T06:11:33.511Z,994.35
2019-05-11T06:12:33.496Z,994.37
2019-05-11T06:13:44.598Z,994.41
2019-05-11T06:14:34.467Z,994.41
2019-05-11T06:15:33.458Z,994.38
2019-05-11T06:16:33.450Z,994.38
2019-05-11T06:17:33.438Z,994.39
2019-05-11T06:18:33.455Z,994.39
2019-05-11T06:19:33.420Z,994.42
2019-05-11T06:20:33.411Z,994.45
2019-05-11T06:21:33.396Z,994.45
2019-05-11T06:22:33.383Z,994.36
2019-05-11T06:23:33.406Z,994.39
2019-05-11T06:24:33.359Z,994.40
2019-05-11T06:25:33.354Z,994.39
2019-05-11T06:26:33.343Z,994.48
2019-05-11T06:27:33.327Z,994.41
2019-05-11T06:28:33.337Z,994.43
2019-05-11T06:29:33.313Z,994.45
2019-05-11T06:30:33.295Z,994.48
2019-05-11T06:31:33.289Z,994.43
2019-05-11T06:32:33.278Z,994.38
2019-05-11T06:33:33.296Z,994.47
2019-05-11T06:34:33.310Z,994.47
2019-05-11T06:35:33.244Z,994.43
2019-05-11T06:36:33.228Z,994.46
2019-05-11T06:37:33.224Z,994.48
2019-05-11T06:38:33.248Z,994.52
2019-05-11T06:39:33.194Z,994.56
2019-05-11T06:40:33.187Z,994.50
2019-05-11T06:41:33.176Z,994.50
2019-05-11T06:42:33.165Z,994.53
2019-05-11T06:43:33.181Z,994.53
2019-05-11T06:44:33.143Z,994.51
2019-05-11T06:45:33.131Z,994.53
2019-05-11T06:46:35.164Z,994.52
2019-05-11T06:47:33.113Z,994.57
2019-05-11T06:48:33.124Z,994.57
2019-05-11T06:49:33.096Z,994.59
2019-05-11T06:50:33.084Z,994.54
2019-05-11T06:51:33.066Z,994.56
2019-05-11T06:52:33.057Z,994.62
2019-05-11T06:53:33.072Z,994.57
2019-05-11T06:54:33.037Z,994.63
2019-05-11T06:55:33.029Z,994.59
2019-05-11T06:56:33.020Z,994.62
2019-05-11T06:57:33.002Z,994.59
2019-05-11T06:58:33.025Z,994.59
2019-05-11T06:59:32.988Z,994.59
2019-05-11T07:00:32.984Z,994.62
2019-05-11T07:01:32.960Z,994.63
2019-05-11T07:02:32.952Z,994.61
2019-05-11T07:03:32.972Z,994.55
2019-05-11T07:04:32.933Z,994.57
2019-05-11T07:05:32.919Z,994.55
2019-05-11T07:06:32.910Z,994.43
2019-05-11T07:07:46.577Z,994.54
2019-05-11T07:08:33.918Z,994.49
2019-05-11T07:09:32.879Z,994.49
2019-05-11T07:10:32.869Z,994.49
2019-05-11T07:11:32.858Z,994.51
2019-05-11T07:12:32.845Z,994.57
2019-05-11T07:13:32.916Z,994.55
2019-05-11T07:14:32.829Z,994.53
2019-05-11T07:15:32.832Z,994.52
2019-05-11T07:16:32.815Z,994.55
2019-05-11T07:17:32.841Z,994.63
2019-05-11T07:18:32.811Z,994.53
2019-05-11T07:19:32.836Z,994.60
2019-05-11T07:20:32.762Z,994.54
2019-05-11T07:21:32.746Z,994.61
2019-05-11T07:22:32.741Z,994.54
2019-05-11T07:23:32.764Z,994.59
2019-05-11T07:24:32.790Z,994.54
2019-05-11T07:25:32.737Z,994.57
2019-05-11T07:26:32.695Z,994.59
2019-05-11T07:27:32.689Z,994.63
2019-05-11T07:28:32.718Z,994.62
2019-05-11T07:29:32.667Z,994.64
2019-05-11T07:30:32.650Z,994.68
2019-05-11T07:31:32.709Z,994.65
2019-05-11T07:32:32.645Z,994.66
2019-05-11T07:33:32.675Z,994.62
2019-05-11T07:34:32.624Z,994.62
2019-05-11T07:35:32.605Z,994.68
2019-05-11T07:36:32.591Z,994.65
2019-05-11T07:37:32.629Z,994.61
2019-05-11T07:38:32.567Z,994.57
2019-05-11T07:39:32.587Z,994.64
2019-05-11T07:40:32.551Z,994.63
2019-05-11T07:41:32.537Z,994.64
2019-05-11T07:42:32.522Z,994.62
2019-05-11T07:43:32.541Z,994.57
2019-05-11T07:44:38.244Z,994.58
2019-05-11T07:45:33.490Z,994.62
2019-05-11T07:46:32.483Z,994.54
2019-05-11T07:47:32.477Z,994.70
2019-05-11T07:48:32.462Z,994.53
2019-05-11T07:49:32.479Z,994.53
2019-05-11T07:50:32.440Z,994.51
2019-05-11T07:51:32.444Z,994.51
2019-05-11T07:52:32.420Z,994.59
2019-05-11T07:53:32.407Z,994.52
2019-05-11T07:54:32.425Z,994.57
2019-05-11T07:55:32.391Z,994.62
2019-05-11T07:56:32.388Z,994.59
2019-05-11T07:57:32.413Z,994.65
2019-05-11T07:58:32.359Z,994.58
2019-05-11T07:59:32.428Z,994.65
2019-05-11T08:00:35.958Z,994.63
2019-05-11T08:01:32.372Z,994.68
2019-05-11T08:02:32.527Z,994.72
2019-05-11T08:03:32.303Z,994.61
2019-05-11T08:04:32.317Z,994.62
2019-05-11T08:05:32.287Z,994.74
2019-05-11T08:06:32.271Z,994.72
2019-05-11T08:07:32.264Z,994.77
2019-05-11T08:08:32.247Z,994.74
2019-05-11T08:09:32.264Z,994.79
2019-05-11T08:10:32.231Z,994.75
2019-05-11T08:11:32.218Z,994.74
2019-05-11T08:12:32.203Z,994.80
2019-05-11T08:13:32.206Z,994.86
2019-05-11T08:14:32.214Z,994.72
2019-05-11T08:15:32.173Z,994.83
2019-05-11T08:16:32.165Z,994.85
2019-05-11T08:17:32.150Z,994.79
2019-05-11T08:18:32.142Z,994.78
2019-05-11T08:19:32.154Z,994.83
2019-05-11T08:20:32.122Z,994.74
2019-05-11T08:21:32.114Z,994.69
2019-05-11T08:22:32.104Z,994.67
2019-05-11T08:23:32.088Z,994.80
2019-05-11T08:24:32.110Z,994.77
2019-05-11T08:25:32.066Z,994.79
2019-05-11T08:26:32.061Z,994.83
2019-05-11T08:27:32.047Z,994.81
2019-05-11T08:28:32.038Z,994.82
2019-05-11T08:29:32.053Z,994.90
2019-05-11T08:30:32.017Z,994.88
2019-05-11T08:31:32.006Z,994.87
2019-05-11T08:32:31.990Z,994.86
2019-05-11T08:33:31.982Z,994.93
2019-05-11T08:34:31.997Z,994.87
2019-05-11T08:35:31.963Z,994.87
2019-05-11T08:36:31.946Z,994.85
2019-05-11T08:37:31.942Z,994.90
2019-05-11T08:38:31.928Z,994.91
2019-05-11T08:39:31.946Z,995.04
2019-05-11T08:40:31.910Z,995.02
2019-05-11T08:41:31.894Z,994.99
2019-05-11T08:42:31.883Z,994.96
2019-05-11T08:43:31.874Z,995.00
2019-05-11T08:44:31.891Z,995.08
2019-05-11T08:45:31.857Z,995.10
2019-05-11T08:46:31.842Z,995.06
2019-05-11T08:47:31.831Z,995.11
2019-05-11T08:48:31.824Z,995.11
2019-05-11T08:49:31.842Z,995.10
2019-05-11T08:50:31.802Z,995.12
2019-05-11T08:51:31.796Z,995.15
2019-05-11T08:52:31.779Z,995.24
2019-05-11T08:53:31.770Z,995.26
2019-05-11T08:54:31.785Z,995.17
2019-05-11T08:55:31.747Z,995.23
2019-05-11T08:56:31.745Z,995.17
2019-05-11T08:57:31.736Z,995.22
2019-05-11T08:58:31.720Z,995.27
2019-05-11T08:59:31.707Z,995.21
2019-05-11T09:00:31.722Z,995.27
2019-05-11T09:01:31.691Z,995.28
2019-05-11T09:02:31.679Z,995.31
2019-05-11T09:03:31.668Z,995.36
2019-05-11T09:04:31.654Z,995.39
2019-05-11T09:05:31.678Z,995.22
2019-05-11T09:06:31.635Z,995.25
2019-05-11T09:07:31.622Z,995.34
2019-05-11T09:08:31.616Z,995.35
2019-05-11T09:09:31.603Z,995.37
2019-05-11T09:10:31.631Z,995.36
2019-05-11T09:11:31.589Z,995.39
2019-05-11T09:12:31.570Z,995.40
2019-05-11T09:13:31.559Z,995.48
2019-05-11T09:14:31.550Z,995.47
2019-05-11T09:15:36.935Z,995.42
2019-05-11T09:16:32.527Z,995.40
2019-05-11T09:17:31.518Z,995.48
2019-05-11T09:18:31.520Z,995.46
2019-05-11T09:19:31.499Z,995.52
2019-05-11T09:20:31.510Z,995.54
2019-05-11T09:21:31.474Z,995.57
2019-05-11T09:22:31.463Z,995.56
2019-05-11T09:23:37.350Z,995.65
2019-05-11T09:24:32.449Z,995.44
2019-05-11T09:25:31.453Z,995.59
2019-05-11T09:26:31.423Z,995.58
2019-05-11T09:27:31.411Z,995.56
2019-05-11T09:28:31.398Z,995.59
2019-05-11T09:29:31.393Z,995.65
2019-05-11T09:30:31.412Z,995.55
2019-05-11T09:31:31.368Z,995.55
2019-05-11T09:32:31.356Z,995.69
2019-05-11T09:33:31.346Z,995.58
2019-05-11T09:34:31.336Z,995.68
2019-05-11T09:35:31.350Z,995.71
2019-05-11T09:36:31.343Z,995.73
2019-05-11T09:37:31.309Z,995.75
2019-05-11T09:38:31.293Z,995.74
2019-05-11T09:39:31.283Z,995.70
2019-05-11T09:40:31.305Z,995.73
2019-05-11T09:41:31.267Z,995.73
2019-05-11T09:42:31.251Z,995.73
2019-05-11T09:43:31.243Z,995.81
2019-05-11T09:44:31.232Z,995.85
2019-05-11T09:45:44.705Z,995.76
2019-05-11T09:46:32.210Z,995.83
2019-05-11T09:47:31.205Z,995.81
2019-05-11T09:48:31.187Z,995.76
2019-05-11T09:49:43.839Z,995.79
2019-05-11T09:50:32.190Z,995.84
2019-05-11T09:51:31.155Z,995.85
2019-05-11T09:52:32.477Z,995.83
2019-05-11T09:53:31.154Z,995.88
2019-05-11T09:54:31.127Z,995.89
2019-05-11T09:55:31.145Z,995.90
2019-05-11T09:56:31.105Z,995.90
2019-05-11T09:57:31.096Z,995.82
2019-05-11T09:58:31.086Z,995.93
2019-05-11T09:59:31.084Z,996.01
2019-05-11T10:00:31.097Z,996.01
2019-05-11T10:01:31.066Z,996.02
2019-05-11T10:02:31.050Z,996.03
2019-05-11T10:03:31.027Z,996.04
2019-05-11T10:04:31.032Z,996.04
2019-05-11T10:05:31.033Z,996.02
2019-05-11T10:06:30.997Z,996.07
2019-05-11T10:07:32.599Z,996.04
2019-05-11T10:08:30.974Z,996.11
2019-05-11T10:09:30.966Z,996.01
2019-05-11T10:10:30.991Z,996.02
2019-05-11T10:11:30.951Z,996.13
2019-05-11T10:12:30.930Z,996.05
2019-05-11T10:13:30.927Z,996.16
2019-05-11T10:14:30.918Z,996.02
2019-05-11T10:15:30.926Z,996.13
2019-05-11T10:16:30.887Z,996.08
2019-05-11T10:17:30.881Z,996.09
2019-05-11T10:18:30.871Z,996.11
2019-05-11T10:19:30.858Z,996.07
2019-05-11T10:20:30.878Z,996.08
2019-05-11T10:21:30.840Z,996.14
2019-05-11T10:22:30.827Z,996.10
2019-05-11T10:23:30.817Z,996.21
2019-05-11T10:24:30.802Z,996.15
2019-05-11T10:25:30.846Z,996.20
2019-05-11T10:26:30.783Z,996.32
2019-05-11T10:27:30.776Z,996.32
2019-05-11T10:28:30.762Z,996.21
2019-05-11T10:29:33.800Z,996.30
2019-05-11T10:30:30.769Z,996.38
2019-05-11T10:31:30.726Z,996.46
2019-05-11T10:32:30.720Z,996.39
2019-05-11T10:33:30.734Z,996.45
2019-05-11T10:34:30.697Z,996.36
2019-05-11T10:35:30.685Z,996.45
2019-05-11T10:36:30.676Z,996.36
2019-05-11T10:37:30.665Z,996.43
2019-05-11T10:38:30.677Z,996.41
2019-05-11T10:39:30.647Z,996.55
2019-05-11T10:40:30.635Z,996.50
2019-05-11T10:41:30.623Z,996.58
2019-05-11T10:42:30.615Z,996.55
2019-05-11T10:43:30.626Z,996.62
2019-05-11T10:44:30.587Z,996.55
2019-05-11T10:45:30.574Z,996.57
2019-05-11T10:46:30.567Z,996.62
2019-05-11T10:47:30.565Z,996.68
2019-05-11T10:48:30.592Z,996.62
2019-05-11T10:49:30.535Z,996.66
2019-05-11T10:50:30.522Z,996.61
2019-05-11T10:51:30.514Z,996.62
2019-05-11T10:52:30.503Z,996.65
2019-05-11T10:53:30.494Z,996.71
2019-05-11T10:54:30.512Z,996.71
2019-05-11T10:55:30.472Z,996.70
2019-05-11T10:56:30.463Z,996.72
2019-05-11T10:57:30.450Z,996.69
2019-05-11T10:58:30.439Z,996.78
2019-05-11T10:59:30.462Z,996.65
2019-05-11T11:00:30.433Z,996.78
2019-05-11T11:01:30.412Z,996.80
2019-05-11T11:02:30.400Z,996.76
2019-05-11T11:03:30.459Z,996.75
2019-05-11T11:04:30.564Z,996.77
2019-05-11T11:05:30.362Z,996.71
2019-05-11T11:06:30.394Z,996.70
2019-05-11T11:07:30.442Z,996.76
2019-05-11T11:08:30.446Z,996.69
2019-05-11T11:09:30.351Z,996.79
2019-05-11T11:10:30.315Z,996.80
2019-05-11T11:11:30.301Z,996.70
2019-05-11T11:12:30.292Z,996.79
2019-05-11T11:13:30.286Z,996.81
2019-05-11T11:14:30.294Z,996.77
2019-05-11T11:15:30.267Z,996.85
2019-05-11T11:16:36.855Z,996.80
2019-05-11T11:17:31.253Z,996.91
2019-05-11T11:18:30.230Z,996.77
2019-05-11T11:19:30.217Z,996.86
2019-05-11T11:20:30.207Z,996.85
2019-05-11T11:21:30.343Z,997.02
2019-05-11T11:22:39.972Z,997.02
2019-05-11T11:23:31.180Z,996.99
2019-05-11T11:24:30.164Z,997.02
2019-05-11T11:25:30.154Z,996.99
2019-05-11T11:26:30.170Z,997.04
2019-05-11T11:27:30.136Z,997.07
2019-05-11T11:28:30.163Z,996.98
2019-05-11T11:29:30.116Z,997.11
2019-05-11T11:30:30.156Z,996.99
2019-05-11T11:31:30.094Z,997.12
2019-05-11T11:32:30.110Z,997.11
2019-05-11T11:33:30.078Z,997.01
2019-05-11T11:34:30.066Z,997.13
2019-05-11T11:35:30.072Z,997.08
2019-05-11T11:36:30.040Z,997.21
2019-05-11T11:37:30.033Z,997.28
2019-05-11T11:38:30.019Z,997.24
2019-05-11T11:39:30.009Z,997.21
2019-05-11T11:40:30.019Z,997.26
2019-05-11T11:41:30.145Z,997.36
2019-05-11T11:42:29.981Z,997.39
2019-05-11T11:43:29.958Z,997.36
2019-05-11T11:44:29.959Z,997.36
2019-05-11T11:45:29.967Z,997.56
2019-05-11T11:46:29.927Z,997.44
2019-05-11T11:47:29.915Z,997.62
2019-05-11T11:48:29.908Z,997.65
2019-05-11T11:49:29.898Z,997.65
2019-05-11T11:50:29.912Z,997.63
2019-05-11T11:51:29.875Z,997.67
2019-05-11T11:52:29.868Z,997.68
2019-05-11T11:53:29.854Z,997.72
2019-05-11T11:54:29.842Z,997.89
2019-05-11T11:55:29.874Z,997.72
2019-05-11T11:56:29.829Z,997.70
2019-05-11T11:57:29.810Z,997.60
2019-05-11T11:58:29.803Z,997.81
2019-05-11T11:59:29.792Z,997.65
2019-05-11T12:00:29.779Z,997.73
2019-05-11T12:01:29.815Z,997.67
2019-05-11T12:02:29.767Z,997.83
2019-05-11T12:03:29.750Z,997.82
2019-05-11T12:04:29.735Z,997.79
2019-05-11T12:05:29.726Z,997.91
2019-05-11T12:06:29.739Z,997.88
2019-05-11T12:07:29.717Z,998.05
2019-05-11T12:08:29.697Z,998.01
2019-05-11T12:09:29.689Z,998.05
2019-05-11T12:10:29.674Z,997.91
2019-05-11T12:11:29.689Z,997.89
2019-05-11T12:12:29.655Z,997.88
2019-05-11T12:15:08.656Z,997.85
2019-05-11T12:15:38.859Z,997.81
2019-05-11T12:16:38.939Z,997.81
2019-05-11T12:17:38.549Z,997.90
2019-05-11T12:18:38.535Z,997.83
2019-05-11T12:19:38.525Z,997.89
2019-05-11T12:20:39.082Z,997.85
2019-05-11T12:21:38.535Z,997.90
2019-05-11T12:22:38.789Z,997.85
2019-05-11T12:23:38.488Z,997.83
2019-05-11T12:24:38.470Z,998.13
2019-05-11T12:25:40.642Z,998.22
2019-05-11T12:26:38.990Z,997.97
2019-05-11T12:27:38.638Z,998.16
2019-05-11T12:28:38.483Z,998.14
2019-05-11T12:29:38.656Z,997.98